Time;durP1;ratioP1;P1;durP2;ratioP2;P2;SDS_P1;SDS_P2;PMS_P1;PMS_P2;Temp;Humidity;BMP_temperature;BMP_pressure;BME280_temperature;BME280_humidity;BME280_pressure;Samples;Min_cycle;Max_cycle;Signal;HPM_P1;HPM_P2
2022/10/23 00:01:22;;;;;;;14.15;6.70;;;12.70;99.90;;;;;;5030883;28;20036;-74
2022/10/23 00:03:51;;;;;;;9.98;5.88;;;12.70;99.90;;;;;;5013222;28;20030;-73
2022/10/23 00:06:18;;;;;;;15.65;8.20;;;12.70;99.90;;;;;;5012884;28;20547;-74
2022/10/23 00:08:46;;;;;;;12.15;6.43;;;12.70;99.90;;;;;;5038877;28;20069;-73
2022/10/23 00:11:16;;;;;;;11.52;6.50;;;12.60;99.90;;;;;;5012471;28;20018;-74
2022/10/23 00:13:42;;;;;;;12.27;6.07;;;12.70;99.90;;;;;;5012837;28;20028;-74
2022/10/23 00:16:11;;;;;;;15.10;7.07;;;12.70;99.90;;;;;;5012976;28;20025;-74
2022/10/23 00:18:38;;;;;;;17.00;6.10;;;12.70;99.90;;;;;;5012817;28;20033;-74
2022/10/23 00:21:06;;;;;;;16.90;6.90;;;12.70;99.90;;;;;;4995992;28;20400;-74
2022/10/23 00:23:32;;;;;;;14.05;6.72;;;12.70;99.90;;;;;;4999866;28;20028;-74
2022/10/23 00:25:59;;;;;;;15.13;6.28;;;12.70;99.90;;;;;;5020898;28;20029;-76
2022/10/23 00:28:25;;;;;;;15.52;6.05;;;12.70;99.90;;;;;;5002716;28;20048;-76
2022/10/23 00:30:50;;;;;;;12.80;6.80;;;12.70;99.90;;;;;;5006737;28;20087;-76
2022/10/23 00:33:16;;;;;;;13.27;7.00;;;12.60;99.90;;;;;;5011028;28;20383;-76
2022/10/23 00:35:42;;;;;;;10.40;6.13;;;12.60;99.90;;;;;;5018221;28;20028;-76
2022/10/23 00:38:09;;;;;;;16.13;6.15;;;12.60;99.90;;;;;;5014504;28;20026;-76
2022/10/23 00:40:36;;;;;;;15.25;7.03;;;12.50;99.90;;;;;;5028957;28;20025;-76
2022/10/23 00:43:02;;;;;;;10.07;5.95;;;12.60;99.90;;;;;;5012347;28;20025;-76
2022/10/23 00:45:32;;;;;;;17.75;6.13;;;12.50;99.90;;;;;;5012012;28;20022;-76
2022/10/23 00:47:59;;;;;;;11.77;6.20;;;12.60;99.90;;;;;;5012909;28;20025;-76
2022/10/23 00:50:28;;;;;;;12.18;5.95;;;12.50;99.90;;;;;;5012608;28;20075;-76
2022/10/23 00:52:55;;;;;;;19.10;7.15;;;12.50;99.90;;;;;;5029990;28;20029;-76
2022/10/23 00:55:23;;;;;;;11.90;5.80;;;12.50;99.90;;;;;;5029972;28;20026;-76
2022/10/23 00:57:49;;;;;;;12.40;5.57;;;12.50;99.90;;;;;;5030429;28;20034;-76
2022/10/23 01:00:25;;;;;;;19.38;6.13;;;12.50;99.90;;;;;;5030348;28;20029;-76
2022/10/23 01:02:55;;;;;;;15.93;6.07;;;12.50;99.90;;;;;;5010883;28;20025;-75
2022/10/23 01:05:26;;;;;;;13.65;5.85;;;12.50;99.90;;;;;;5015200;28;20027;-76
2022/10/23 01:07:53;;;;;;;;;;;12.50;99.90;;;;;;5024667;28;20103;-75
2022/10/23 01:10:28;;;;;;;17.35;5.75;;;12.60;99.90;;;;;;5032234;28;20282;-76
2022/10/23 01:12:59;;;;;;;11.20;5.53;;;12.60;99.90;;;;;;5032085;28;20117;-76
2022/10/23 01:15:34;;;;;;;10.13;5.75;;;12.60;99.90;;;;;;5032352;28;20040;-75
2022/10/23 01:18:23;;;;;;;11.95;5.22;;;12.70;99.90;;;;;;5032651;28;20021;-75
2022/10/23 01:20:51;;;;;;;11.68;6.20;;;12.70;99.90;;;;;;5032390;28;20025;-76
2022/10/23 01:23:24;;;;;;;13.57;5.70;;;12.70;99.90;;;;;;5032065;28;20066;-77
2022/10/23 01:26:08;;;;;;;11.73;6.22;;;12.70;99.90;;;;;;5032120;28;20021;-76
2022/10/23 01:28:47;;;;;;;14.20;6.38;;;12.70;99.90;;;;;;5031897;28;20021;-76
2022/10/23 01:31:32;;;;;;;8.15;5.40;;;12.70;99.90;;;;;;5049714;28;20083;-75
2022/10/23 01:34:08;;;;;;;13.63;5.82;;;12.70;99.90;;;;;;5032344;28;20025;-75
2022/10/23 01:36:38;;;;;;;12.70;5.90;;;12.60;99.90;;;;;;5021810;28;20032;-75
2022/10/23 01:39:16;;;;;;;11.50;6.22;;;12.60;99.90;;;;;;5047310;28;20033;-75
2022/10/23 01:41:47;;;;;;;16.98;5.38;;;12.60;99.90;;;;;;5031518;28;20120;-75
2022/10/23 01:44:23;;;;;;;10.23;5.13;;;12.70;99.90;;;;;;5049925;28;20118;-75
2022/10/23 01:46:51;;;;;;;12.35;5.57;;;12.70;99.90;;;;;;5049681;28;20029;-75
2022/10/23 01:49:19;;;;;;;14.25;5.20;;;12.70;99.90;;;;;;5031587;28;20025;-75
2022/10/23 01:51:52;;;;;;;14.00;5.00;;;12.60;99.90;;;;;;5049026;28;20021;-75
2022/10/23 01:54:23;;;;;;;12.45;4.78;;;12.60;99.90;;;;;;5031568;28;20443;-75
2022/10/23 01:56:53;;;;;;;11.13;5.03;;;12.60;99.90;;;;;;5050054;28;20016;-75
2022/10/23 01:59:26;;;;;;;9.70;4.43;;;12.60;99.90;;;;;;5049689;28;20490;-75
2022/10/23 02:01:54;;;;;;;12.25;5.45;;;12.60;99.90;;;;;;5031093;28;20029;-75
2022/10/23 02:04:38;;;;;;;10.48;4.93;;;12.70;99.90;;;;;;5031835;28;20025;-75
2022/10/23 02:07:04;;;;;;;11.57;4.90;;;12.70;99.90;;;;;;5037602;28;20108;-75
2022/10/23 02:09:34;;;;;;;12.98;4.13;;;12.70;99.90;;;;;;5034788;28;20028;-75
2022/10/23 02:12:15;;;;;;;8.55;5.00;;;12.60;99.90;;;;;;5034576;28;20214;-76
2022/10/23 02:15:17;;;;;;;7.55;4.60;;;12.60;99.90;;;;;;5035203;28;20060;-76
2022/10/23 02:18:27;;;;;;;7.47;4.65;;;12.60;99.90;;;;;;5034651;28;20025;-73
2022/10/23 02:21:18;;;;;;;10.52;4.38;;;12.60;99.90;;;;;;4974207;28;20057;-76
2022/10/23 02:23:58;;;;;;;13.23;5.00;;;12.50;99.90;;;;;;5049476;28;20055;-76
2022/10/23 02:26:54;;;;;;;10.77;5.45;;;12.40;99.90;;;;;;5034619;28;20033;-74
2022/10/23 02:29:36;;;;;;;10.75;4.97;;;12.30;99.90;;;;;;5034672;28;20024;-73
2022/10/23 02:32:03;;;;;;;9.63;5.10;;;12.30;99.90;;;;;;4993466;28;20030;-73
2022/10/23 02:34:29;;;;;;;12.75;4.65;;;12.30;99.90;;;;;;4995238;28;20049;-73
2022/10/23 02:36:55;;;;;;;8.27;4.57;;;12.20;99.90;;;;;;5039101;28;20177;-73
2022/10/23 02:39:23;;;;;;;8.73;4.82;;;12.10;99.90;;;;;;5052235;28;20029;-73
2022/10/23 02:42:10;;;;;;;10.38;5.22;;;12.10;99.90;;;;;;5052314;28;20029;-73
2022/10/23 02:44:45;;;;;;;8.65;4.45;;;12.10;99.90;;;;;;5034400;28;20040;-73
2022/10/23 02:47:24;;;;;;;7.57;4.95;;;12.00;99.90;;;;;;5052531;28;20028;-73
2022/10/23 02:50:36;;;;;;;8.25;4.57;;;12.00;99.90;;;;;;5030989;28;20025;-75
2022/10/23 02:53:22;;;;;;;10.88;5.00;;;12.00;99.90;;;;;;5006397;28;20078;-74
2022/10/23 02:56:03;;;;;;;7.88;4.88;;;11.90;99.90;;;;;;5010586;28;20164;-74
2022/10/23 02:58:55;;;;;;;;;;;11.80;99.90;;;;;;5005070;28;20014;-74
2022/10/23 03:01:29;;;;;;;11.43;4.88;;;11.80;99.90;;;;;;5027496;28;20008;-74
2022/10/23 03:04:02;;;;;;;9.75;5.00;;;11.80;99.90;;;;;;5022415;28;20068;-74
2022/10/23 03:06:27;;;;;;;9.75;5.20;;;11.70;99.90;;;;;;5010695;28;20029;-75
2022/10/23 03:08:58;;;;;;;10.02;4.90;;;11.80;99.90;;;;;;5007517;28;20502;-75
2022/10/23 03:11:25;;;;;;;13.75;5.03;;;11.70;99.90;;;;;;5004447;28;20018;-75
2022/10/23 03:13:56;;;;;;;7.95;4.93;;;11.70;99.90;;;;;;5026889;28;20018;-74
2022/10/23 03:16:23;;;;;;;9.90;4.88;;;11.70;99.90;;;;;;5004834;28;20572;-74
2022/10/23 03:18:51;;;;;;;7.45;4.82;;;11.70;99.90;;;;;;5019617;28;20518;-74
2022/10/23 03:21:20;;;;;;;7.18;4.70;;;11.70;99.90;;;;;;5021710;28;20076;-74
2022/10/23 03:23:45;;;;;;;8.85;5.35;;;11.60;99.90;;;;;;5005735;28;20501;-74
2022/10/23 03:26:11;;;;;;;12.00;5.05;;;11.60;99.90;;;;;;5036034;28;20211;-74
2022/10/23 03:28:37;;;;;;;11.50;5.13;;;11.70;99.90;;;;;;5003741;28;20025;-75
2022/10/23 03:31:03;;;;;;;7.70;4.28;;;11.60;99.90;;;;;;5034180;28;20428;-74
2022/10/23 03:33:29;;;;;;;7.53;4.38;;;11.60;99.90;;;;;;5002478;28;20383;-75
2022/10/23 03:35:55;;;;;;;8.18;4.50;;;11.60;99.90;;;;;;5027872;28;20095;-75
2022/10/23 03:38:26;;;;;;;7.13;4.22;;;11.60;99.90;;;;;;5009682;28;20448;-75
2022/10/23 03:40:52;;;;;;;11.02;4.20;;;11.50;99.90;;;;;;5037620;28;20122;-75
2022/10/23 03:43:20;;;;;;;15.15;6.25;;;11.50;99.90;;;;;;5001947;28;20162;-74
2022/10/23 03:45:46;;;;;;;10.85;5.38;;;11.50;99.90;;;;;;5003273;28;20013;-74
2022/10/23 03:48:12;;;;;;;10.68;5.05;;;11.50;99.90;;;;;;5002016;28;20598;-75
2022/10/23 03:50:38;;;;;;;8.07;4.68;;;11.50;99.90;;;;;;5034689;28;20067;-75
2022/10/23 03:53:03;;;;;;;12.38;5.15;;;11.50;99.90;;;;;;5003067;28;20029;-74
2022/10/23 03:55:30;;;;;;;11.57;4.97;;;11.50;99.90;;;;;;5021823;28;20065;-75
2022/10/23 03:57:55;;;;;;;8.35;3.85;;;11.50;99.90;;;;;;5001484;28;20044;-76
2022/10/23 04:00:23;;;;;;;6.55;4.20;;;11.50;99.90;;;;;;5002194;28;20030;-74
2022/10/23 04:02:52;;;;;;;8.73;5.00;;;11.40;99.90;;;;;;5001326;28;20336;-74
2022/10/23 04:05:17;;;;;;;8.82;5.05;;;11.50;99.90;;;;;;5025046;28;20609;-76
2022/10/23 04:07:46;;;;;;;9.98;4.43;;;11.40;99.90;;;;;;5034727;28;20036;-74
2022/10/23 04:10:14;;;;;;;8.38;4.18;;;11.40;99.90;;;;;;5004153;28;20040;-75
2022/10/23 04:12:40;;;;;;;5.72;3.80;;;11.40;99.90;;;;;;4998587;28;20049;-74
2022/10/23 04:15:09;;;;;;;9.90;4.88;;;11.30;99.90;;;;;;4999136;28;20490;-74
2022/10/23 04:17:35;;;;;;;7.45;4.25;;;11.30;99.90;;;;;;5011706;28;20032;-73
2022/10/23 04:20:03;;;;;;;8.40;4.78;;;11.20;99.90;;;;;;5033610;28;20018;-75
2022/10/23 04:22:32;;;;;;;11.32;5.93;;;11.20;99.90;;;;;;5013879;28;20021;-75
2022/10/23 04:25:00;;;;;;;12.63;5.78;;;11.20;99.90;;;;;;5013930;28;20021;-75
2022/10/23 04:27:26;;;;;;;9.30;4.90;;;11.20;99.90;;;;;;5013499;28;20045;-75
2022/10/23 04:29:54;;;;;;;9.02;5.45;;;11.10;99.90;;;;;;5013106;28;20067;-75
2022/10/23 04:32:23;;;;;;;8.00;5.20;;;11.20;99.90;;;;;;5013263;28;20033;-75
2022/10/23 04:34:51;;;;;;;10.98;6.03;;;11.20;99.90;;;;;;5013445;28;20026;-75
2022/10/23 04:37:17;;;;;;;11.98;5.70;;;11.10;99.90;;;;;;5042463;28;20036;-75
2022/10/23 04:39:45;;;;;;;17.17;6.40;;;11.10;99.90;;;;;;5051075;28;20025;-75
2022/10/23 04:42:14;;;;;;;7.65;5.30;;;11.10;99.90;;;;;;5032554;28;20437;-75
2022/10/23 04:44:39;;;;;;;11.23;5.88;;;11.10;99.90;;;;;;5050736;28;20110;-75
2022/10/23 04:47:05;;;;;;;12.95;6.38;;;11.10;99.90;;;;;;5032443;28;20025;-75
2022/10/23 04:49:31;;;;;;;9.05;5.95;;;11.10;99.90;;;;;;5032528;28;20206;-75
2022/10/23 04:51:57;;;;;;;10.85;6.13;;;11.10;99.90;;;;;;5049370;28;20021;-75
2022/10/23 04:54:22;;;;;;;9.85;6.25;;;11.10;99.90;;;;;;5032329;28;20021;-75
2022/10/23 04:56:48;;;;;;;7.78;5.35;;;11.10;99.90;;;;;;5032249;28;20074;-75
2022/10/23 04:59:14;;;;;;;6.68;4.53;;;11.00;99.90;;;;;;5032338;28;20115;-75
2022/10/23 05:01:39;;;;;;;6.88;4.65;;;11.00;99.90;;;;;;5031732;28;20170;-75
2022/10/23 05:04:08;;;;;;;7.25;4.28;;;11.00;99.90;;;;;;5018486;28;20626;-75
2022/10/23 05:06:36;;;;;;;5.30;4.25;;;10.90;99.90;;;;;;5013968;28;20115;-74
2022/10/23 05:09:02;;;;;;;5.60;4.60;;;10.80;99.90;;;;;;5014421;28;20399;-74
2022/10/23 05:11:30;;;;;;;5.68;4.50;;;10.80;99.90;;;;;;5026255;28;20018;-75
2022/10/23 05:13:56;;;;;;;6.82;4.10;;;10.80;99.90;;;;;;5013800;28;20292;-75
2022/10/23 05:16:50;;;;;;;4.47;3.97;;;10.70;99.90;;;;;;4992688;28;20034;-76
2022/10/23 05:19:38;;;;;;;5.65;4.72;;;10.70;99.90;;;;;;4993315;28;20493;-75
2022/10/23 05:22:04;;;;;;;8.13;4.82;;;10.70;99.90;;;;;;4994045;28;20029;-75
2022/10/23 05:24:30;;;;;;;11.05;5.07;;;10.70;99.90;;;;;;5030328;28;20482;-75
2022/10/23 05:26:56;;;;;;;12.32;5.90;;;10.80;99.90;;;;;;5024548;28;20041;-77
2022/10/23 05:29:22;;;;;;;9.52;5.35;;;10.80;99.90;;;;;;5012477;28;20018;-76
2022/10/23 05:31:51;;;;;;;7.45;5.72;;;10.80;99.90;;;;;;5012215;28;20022;-76
2022/10/23 05:34:21;;;;;;;12.63;5.70;;;10.90;99.90;;;;;;5012288;28;20045;-76
2022/10/23 05:36:47;;;;;;;8.50;4.60;;;10.90;99.90;;;;;;5026625;28;20028;-75
2022/10/23 05:39:13;;;;;;;7.75;4.90;;;10.80;99.90;;;;;;5013403;28;20116;-75
2022/10/23 05:41:39;;;;;;;9.48;5.18;;;10.90;99.90;;;;;;5012120;28;20541;-74
2022/10/23 05:44:05;;;;;;;8.27;5.32;;;10.90;99.90;;;;;;5016204;28;20059;-75
2022/10/23 05:46:30;;;;;;;7.43;5.05;;;10.90;99.90;;;;;;5033163;28;20035;-75
2022/10/23 05:48:56;;;;;;;5.93;4.72;;;10.90;99.90;;;;;;5015698;28;20026;-74
2022/10/23 05:51:22;;;;;;;12.23;5.00;;;10.90;99.90;;;;;;5014955;28;20026;-76
2022/10/23 05:53:51;;;;;;;6.78;4.78;;;10.90;99.90;;;;;;5015037;28;20231;-76
2022/10/23 05:56:17;;;;;;;8.00;4.97;;;10.90;99.90;;;;;;5008713;28;20018;-76
2022/10/23 05:58:42;;;;;;;6.30;4.85;;;10.80;99.90;;;;;;5005145;28;20452;-74
2022/10/23 06:01:11;;;;;;;18.13;5.35;;;10.80;99.90;;;;;;5007072;28;20143;-76
2022/10/23 06:03:37;;;;;;;7.95;4.40;;;10.80;99.90;;;;;;5022026;28;20395;-77
2022/10/23 06:06:07;;;;;;;7.45;4.40;;;10.80;99.90;;;;;;5012351;28;20478;-77
2022/10/23 06:08:37;;;;;;;9.82;4.25;;;10.80;99.90;;;;;;5022017;28;20368;-77
2022/10/23 06:11:07;;;;;;;;;;;10.80;99.90;;;;;;5016219;28;20091;-76
2022/10/23 06:13:33;;;;;;;6.68;4.53;;;10.80;99.90;;;;;;5033120;28;19997;-76
2022/10/23 06:16:10;;;;;;;4.88;4.18;;;10.90;99.90;;;;;;5033084;28;20065;-76
2022/10/23 06:18:36;;;;;;;5.70;4.13;;;10.80;99.90;;;;;;5015119;28;20022;-77
2022/10/23 06:21:07;;;;;;;6.03;3.67;;;10.90;99.90;;;;;;5015162;28;20360;-76
2022/10/23 06:23:34;;;;;;;15.07;5.30;;;10.90;99.90;;;;;;5015125;28;20294;-77
2022/10/23 06:26:01;;;;;;;7.47;5.05;;;10.90;99.90;;;;;;5015225;28;20026;-77
2022/10/23 06:28:27;;;;;;;10.05;5.55;;;11.00;99.90;;;;;;5014958;28;20026;-77
2022/10/23 06:30:53;;;;;;;7.35;4.88;;;11.00;99.90;;;;;;5015000;28;20030;-77
2022/10/23 06:33:19;;;;;;;14.00;5.20;;;11.10;99.90;;;;;;5014503;28;20522;-76
2022/10/23 06:35:46;;;;;;;7.93;4.75;;;11.10;99.90;;;;;;5020716;28;20032;-77
2022/10/23 06:38:11;;;;;;;7.50;4.78;;;11.20;99.90;;;;;;5026067;28;20021;-76
2022/10/23 06:40:37;;;;;;;10.73;4.55;;;11.20;99.90;;;;;;5052449;28;20444;-77
2022/10/23 06:43:04;;;;;;;8.30;4.65;;;11.30;99.90;;;;;;5052133;28;20029;-77
2022/10/23 06:45:32;;;;;;;7.53;3.92;;;11.40;99.90;;;;;;5034624;28;20032;-77
2022/10/23 06:47:58;;;;;;;6.95;4.28;;;11.40;99.90;;;;;;5034602;28;20025;-77
2022/10/23 06:50:25;;;;;;;5.07;3.63;;;11.50;99.90;;;;;;5034539;28;20402;-77
2022/10/23 06:52:51;;;;;;;6.10;4.13;;;11.50;99.90;;;;;;5037616;28;20538;-75
2022/10/23 06:55:18;;;;;;;6.70;3.50;;;11.60;99.90;;;;;;5004744;28;20156;-75
2022/10/23 06:57:45;;;;;;;8.13;3.83;;;11.70;99.90;;;;;;5021038;28;20022;-76
2022/10/23 07:00:11;;;;;;;5.20;3.67;;;11.70;99.90;;;;;;5004428;28;20107;-77
2022/10/23 07:02:37;;;;;;;8.15;3.88;;;11.80;99.90;;;;;;5004370;28;20572;-76
2022/10/23 07:05:02;;;;;;;7.80;5.47;;;11.90;99.90;;;;;;5006235;28;20025;-76
2022/10/23 07:07:31;;;;;;;7.28;4.93;;;11.90;99.90;;;;;;5015742;28;20473;-77
2022/10/23 07:09:57;;;;;;;6.93;4.55;;;12.00;99.90;;;;;;5018369;28;20034;-76
2022/10/23 07:12:26;;;;;;;9.27;4.47;;;12.00;99.90;;;;;;5019839;28;20017;-76
2022/10/23 07:14:55;;;;;;;8.30;4.38;;;12.10;99.90;;;;;;5019407;28;20057;-76
2022/10/23 07:17:20;;;;;;;7.47;3.70;;;12.20;99.90;;;;;;5019128;28;20026;-76
2022/10/23 07:19:46;;;;;;;8.63;4.07;;;12.20;99.90;;;;;;5019998;28;20433;-76
2022/10/23 07:22:12;;;;;;;4.85;3.45;;;12.30;99.90;;;;;;5018279;28;20036;-77
2022/10/23 07:24:39;;;;;;;6.95;3.72;;;12.40;99.90;;;;;;5036918;28;20033;-76
2022/10/23 07:27:05;;;;;;;10.40;3.45;;;12.50;99.90;;;;;;5019509;28;20029;-76
2022/10/23 07:29:31;;;;;;;13.23;3.90;;;12.60;99.90;;;;;;5019118;28;20022;-76
2022/10/23 07:31:59;;;;;;;4.68;3.25;;;12.60;99.90;;;;;;5037118;28;20024;-75
2022/10/23 07:34:25;;;;;;;9.93;3.35;;;12.70;99.90;;;;;;5036283;28;20028;-77
2022/10/23 07:36:53;;;;;;;4.05;3.63;;;12.80;99.90;;;;;;5027195;28;20021;-77
2022/10/23 07:39:19;;;;;;;9.25;3.75;;;12.90;99.90;;;;;;5037246;28;20021;-76
2022/10/23 07:41:45;;;;;;;3.42;2.60;;;13.00;99.90;;;;;;5009518;28;20120;-76
2022/10/23 07:44:10;;;;;;;8.25;3.45;;;13.10;99.90;;;;;;5013137;28;20087;-77
2022/10/23 07:46:39;;;;;;;6.93;3.70;;;13.20;99.90;;;;;;5047438;28;20021;-79
2022/10/23 07:49:05;;;;;;;8.10;3.53;;;13.30;99.90;;;;;;5046876;28;20367;-76
2022/10/23 07:51:30;;;;;;;7.28;3.40;;;13.40;99.90;;;;;;5045966;28;20112;-77
2022/10/23 07:53:56;;;;;;;4.63;2.63;;;13.50;99.90;;;;;;5029730;28;20486;-77
2022/10/23 07:56:24;;;;;;;11.20;3.70;;;13.60;99.90;;;;;;5026726;28;20029;-78
2022/10/23 07:58:52;;;;;;;8.40;3.60;;;13.70;99.90;;;;;;5011527;28;20380;-78
2022/10/23 08:01:31;;;;;;;7.60;3.47;;;13.80;99.90;;;;;;5006352;28;20405;-78
2022/10/23 08:03:57;;;;;;;6.47;3.40;;;14.00;99.90;;;;;;5024410;28;20014;-76
2022/10/23 08:06:22;;;;;;;4.78;2.83;;;14.10;99.90;;;;;;5031206;28;20073;-76
2022/10/23 08:08:48;;;;;;;5.40;3.08;;;14.20;99.90;;;;;;5010354;28;20045;-76
2022/10/23 08:11:16;;;;;;;5.50;2.80;;;14.40;99.90;;;;;;5021106;28;20026;-76
2022/10/23 08:13:43;;;;;;;6.18;3.17;;;14.50;99.90;;;;;;5001924;28;20017;-76
2022/10/23 08:16:11;;;;;;;6.00;3.25;;;14.60;99.90;;;;;;5022212;28;20021;-76
2022/10/23 08:18:38;;;;;;;10.02;3.65;;;14.60;99.90;;;;;;5019108;28;20538;-76
2022/10/23 08:21:04;;;;;;;5.10;3.40;;;14.70;99.90;;;;;;5020989;28;20116;-76
2022/10/23 08:23:30;;;;;;;5.07;3.47;;;14.80;99.90;;;;;;5001725;28;20045;-76
2022/10/23 08:26:01;;;;;;;6.22;3.28;;;14.90;99.90;;;;;;5021559;28;20021;-76
2022/10/23 08:28:29;;;;;;;7.47;2.80;;;14.90;99.90;;;;;;5004635;28;20014;-76
2022/10/23 08:30:55;;;;;;;5.13;2.53;;;15.00;99.90;;;;;;5019030;28;20030;-77
2022/10/23 08:33:23;;;;;;;7.32;3.30;;;15.00;99.90;;;;;;5020626;28;20105;-76
2022/10/23 08:35:50;;;;;;;4.72;3.00;;;15.10;99.90;;;;;;5023630;28;20022;-76
2022/10/23 08:38:16;;;;;;;6.30;3.38;;;15.20;99.90;;;;;;5016484;28;20022;-76
2022/10/23 08:40:47;;;;;;;7.97;3.30;;;15.20;99.90;;;;;;5002010;28;20381;-77
2022/10/23 08:43:34;;;;;;;4.88;2.72;;;15.40;99.90;;;;;;5003972;28;20026;-76
2022/10/23 08:46:22;;;;;;;7.22;3.47;;;15.40;99.90;;;;;;5003643;28;20033;-76
2022/10/23 08:49:11;;;;;;;6.63;3.45;;;15.50;99.90;;;;;;5000371;28;20025;-76
2022/10/23 08:51:42;;;;;;;6.18;3.08;;;15.60;99.90;;;;;;5016922;28;20044;-77
2022/10/23 08:54:31;;;;;;;4.00;2.60;;;15.80;99.90;;;;;;5003940;28;20018;-76
2022/10/23 08:57:22;;;;;;;8.35;2.40;;;15.90;99.90;;;;;;5018118;28;20025;-77
2022/10/23 08:59:53;;;;;;;;;;;16.10;99.90;;;;;;5017318;28;20022;-77
2022/10/23 09:02:42;;;;;;;3.65;2.15;;;16.20;99.90;;;;;;5020496;28;19916;-78
2022/10/23 09:05:30;;;;;;;4.85;1.85;;;16.30;99.90;;;;;;5020062;28;20048;-78
2022/10/23 09:08:23;;;;;;;9.57;1.90;;;16.40;99.90;;;;;;5006779;28;20040;-77
2022/10/23 09:11:14;;;;;;;9.00;2.35;;;16.70;99.90;;;;;;5026732;28;20474;-76
2022/10/23 09:14:02;;;;;;;3.75;1.90;;;17.00;99.90;;;;;;5003628;28;20021;-77
2022/10/23 09:16:36;;;;;;;7.50;2.30;;;17.10;99.90;;;;;;5018535;28;20502;-77
2022/10/23 09:19:14;;;;;;;8.40;2.55;;;17.30;99.90;;;;;;5004539;28;20025;-78
2022/10/23 09:21:45;;;;;;;8.40;2.45;;;17.20;99.90;;;;;;5024430;28;20029;-77
2022/10/23 09:24:13;;;;;;;;;;;17.30;99.90;;;;;;5006576;28;20499;-78
2022/10/23 09:26:41;;;;;;;6.53;2.28;;;17.30;99.90;;;;;;5025432;28;19928;-76
2022/10/23 09:29:22;;;;;;;13.48;2.65;;;17.20;99.90;;;;;;5007188;28;20061;-77
2022/10/23 09:31:50;;;;;;;5.80;2.80;;;17.10;99.90;;;;;;5020777;28;20123;-77
2022/10/23 09:34:24;;;;;;;5.70;2.25;;;17.00;99.90;;;;;;5006385;28;20133;-77
2022/10/23 09:37:00;;;;;;;4.47;2.00;;;17.00;99.90;;;;;;5025257;28;20029;-76
2022/10/23 09:39:35;;;;;;;5.03;2.05;;;17.00;99.90;;;;;;5020201;28;20024;-77
2022/10/23 09:42:19;;;;;;;5.18;2.13;;;17.00;99.90;;;;;;5006111;28;20445;-78
2022/10/23 09:44:51;;;;;;;4.32;2.03;;;17.00;99.90;;;;;;5006462;28;20474;-77
2022/10/23 09:47:23;;;;;;;8.23;2.42;;;17.10;99.90;;;;;;5006502;28;20540;-77
2022/10/23 09:49:56;;;;;;;5.97;1.70;;;17.30;99.90;;;;;;5002525;28;20049;-77
2022/10/23 09:52:38;;;;;;;5.45;2.10;;;17.50;99.90;;;;;;5024452;28;20017;-78
2022/10/23 09:55:23;;;;;;;6.28;2.25;;;17.70;99.90;;;;;;5024378;28;20049;-76
2022/10/23 09:57:49;;;;;;;6.10;2.75;;;18.10;99.90;;;;;;5021397;28;20504;-77
2022/10/23 10:00:29;;;;;;;5.47;2.40;;;18.60;99.90;;;;;;5023782;28;20040;-77
2022/10/23 10:03:06;;;;;;;4.40;2.20;;;19.20;99.90;;;;;;5020802;28;20482;-77
2022/10/23 10:05:54;;;;;;;6.45;2.47;;;19.60;99.90;;;;;;5005877;28;20104;-77
2022/10/23 10:08:49;;;;;;;3.83;2.45;;;20.20;99.90;;;;;;5023643;28;20029;-77
2022/10/23 10:11:26;;;;;;;3.58;1.88;;;21.10;99.90;;;;;;5015196;28;20401;-78
2022/10/23 10:14:20;;;;;;;5.20;2.78;;;22.10;99.90;;;;;;5033043;28;20025;-77
2022/10/23 10:17:50;;;;;;;3.95;2.05;;;22.60;99.90;;;;;;5015053;28;20220;-77
2022/10/23 10:20:48;;;;;;;7.38;2.33;;;22.60;99.90;;;;;;5015452;28;20017;-76
2022/10/23 10:23:26;;;;;;;7.13;2.05;;;22.60;99.90;;;;;;5009053;28;20029;-76
2022/10/23 10:25:55;;;;;;;5.75;2.25;;;22.50;99.90;;;;;;5003607;28;20453;-77
2022/10/23 10:28:39;;;;;;;8.38;2.00;;;22.30;99.90;;;;;;5003993;28;20045;-78
2022/10/23 10:31:13;;;;;;;7.95;2.20;;;21.90;99.90;;;;;;5020640;28;20029;-77
2022/10/23 10:34:24;;;;;;;4.45;2.22;;;21.70;99.90;;;;;;5017347;28;20040;-77
2022/10/23 10:36:55;;;;;;;4.88;2.17;;;21.80;99.90;;;;;;5010448;28;20017;-78
2022/10/23 10:39:31;;;;;;;4.05;1.88;;;21.70;99.90;;;;;;5005206;28;20428;-79
2022/10/23 10:42:23;;;;;;;3.45;2.20;;;21.40;99.90;;;;;;5005365;28;20059;-77
2022/10/23 10:45:17;;;;;;;4.18;2.20;;;21.30;99.90;;;;;;5021248;28;20080;-77
2022/10/23 10:47:58;;;;;;;4.32;1.52;;;21.40;99.90;;;;;;4960217;28;20043;-77
2022/10/23 10:51:01;;;;;;;3.85;1.70;;;21.00;99.90;;;;;;4999440;28;20541;-76
2022/10/23 10:54:07;;;;;;;9.10;2.03;;;20.90;99.90;;;;;;5019797;28;20379;-77
2022/10/23 10:56:44;;;;;;;4.45;2.30;;;20.70;99.90;;;;;;5018820;28;20050;-76
2022/10/23 10:59:26;;;;;;;6.97;1.80;;;20.30;99.90;;;;;;5018605;28;20026;-77
2022/10/23 11:02:34;;;;;;;5.00;2.10;;;20.20;99.90;;;;;;5003965;28;20029;-77
2022/10/23 11:05:30;;;;;;;6.15;1.90;;;20.20;99.90;;;;;;5020912;28;20025;-77
2022/10/23 11:08:17;;;;;;;4.43;1.92;;;20.20;99.90;;;;;;5024191;28;20014;-78
2022/10/23 11:11:14;;;;;;;4.30;2.03;;;19.60;99.90;;;;;;5009004;28;20109;-78
2022/10/23 11:13:42;;;;;;;5.85;2.25;;;19.30;99.90;;;;;;5018970;28;20029;-77
2022/10/23 11:16:22;;;;;;;5.10;1.83;;;19.40;99.90;;;;;;5003939;28;20033;-76
2022/10/23 11:19:20;;;;;;;5.15;1.88;;;19.10;99.90;;;;;;5022207;28;20535;-77
2022/10/23 11:21:57;;;;;;;7.78;2.45;;;19.10;99.90;;;;;;5004580;28;20518;-77
2022/10/23 11:24:45;;;;;;;4.57;2.20;;;19.40;99.90;;;;;;5025327;28;20055;-76
2022/10/23 11:27:36;;;;;;;7.05;2.75;;;19.70;99.90;;;;;;5006560;28;20021;-77
2022/10/23 11:30:26;;;;;;;3.70;1.77;;;19.90;99.90;;;;;;5012614;28;20030;-78
2022/10/23 11:33:34;;;;;;;5.17;2.10;;;20.10;99.90;;;;;;5012678;28;20025;-78
2022/10/23 11:36:17;;;;;;;3.83;1.90;;;20.40;99.90;;;;;;5010977;28;20017;-79
2022/10/23 11:38:46;;;;;;;4.45;2.13;;;20.50;99.90;;;;;;5043701;28;20021;-78
2022/10/23 11:41:25;;;;;;;6.45;2.20;;;20.70;99.90;;;;;;5032451;28;20078;-79
2022/10/23 11:43:57;;;;;;;3.58;1.88;;;21.00;99.90;;;;;;5049951;28;20024;-79
2022/10/23 11:46:22;;;;;;;3.40;2.05;;;21.20;99.90;;;;;;5032446;28;20538;-78
2022/10/23 11:48:49;;;;;;;2.83;1.55;;;21.40;99.90;;;;;;5032131;28;20029;-78
2022/10/23 11:51:38;;;;;;;6.07;1.73;;;21.40;99.90;;;;;;5049830;28;20059;-79
2022/10/23 11:54:30;;;;;;;5.45;1.85;;;21.10;99.90;;;;;;5049218;28;20025;-78
2022/10/23 11:57:13;;;;;;;5.35;1.63;;;21.30;99.90;;;;;;5049919;28;20025;-79
2022/10/23 11:59:52;;;;;;;5.93;1.63;;;21.50;99.90;;;;;;5031852;28;20453;-79
2022/10/23 12:02:32;;;;;;;4.43;1.60;;;21.50;99.90;;;;;;5033818;28;20021;-81
2022/10/23 12:05:23;;;;;;;7.90;2.47;;;21.20;99.90;;;;;;5030203;28;20479;-80
2022/10/23 12:07:54;;;;;;;4.65;1.58;;;21.40;99.90;;;;;;5021549;28;20056;-80
2022/10/23 12:10:29;;;;;;;10.35;1.90;;;21.80;99.90;;;;;;4999288;28;20029;-80
2022/10/23 12:13:14;;;;;;;3.50;1.80;;;22.00;99.90;;;;;;5026996;28;20026;-80
2022/10/23 12:15:39;;;;;;;3.70;1.83;;;22.20;99.90;;;;;;5014973;28;20033;-80
2022/10/23 12:18:29;;;;;;;3.55;1.55;;;22.40;99.90;;;;;;4997146;28;20022;-80
2022/10/23 12:21:00;;;;;;;4.97;1.85;;;22.30;99.90;;;;;;5021384;28;20033;-80
2022/10/23 12:24:01;;;;;;;4.10;1.50;;;22.10;99.90;;;;;;5030476;28;20025;-80
2022/10/23 12:27:00;;;;;;;3.33;1.60;;;22.20;99.90;;;;;;5035968;28;20026;-80
2022/10/23 12:30:11;;;;;;;5.82;2.22;;;22.40;99.60;;;;;;4993348;28;20040;-80
2022/10/23 12:33:02;;;;;;;4.60;1.60;;;22.30;99.90;;;;;;4900849;29;20031;-76
2022/10/23 12:35:47;;;;;;;3.45;1.52;;;22.20;99.90;;;;;;4999613;28;20164;-77
2022/10/23 12:38:27;;;;;;;5.68;1.70;;;22.10;99.90;;;;;;5020200;28;20128;-76
2022/10/23 12:41:00;;;;;;;3.83;1.77;;;21.60;99.90;;;;;;5029475;28;20022;-76
2022/10/23 12:43:40;;;;;;;4.18;1.60;;;21.40;99.90;;;;;;5012094;28;20516;-77
2022/10/23 12:46:30;;;;;;;3.90;1.60;;;21.40;99.90;;;;;;5012756;28;20033;-76
2022/10/23 12:48:56;;;;;;;6.88;2.40;;;21.30;99.90;;;;;;5012853;28;20030;-77
2022/10/23 12:51:33;;;;;;;7.93;1.90;;;21.20;99.90;;;;;;5011769;28;20390;-76
2022/10/23 12:54:01;;;;;;;3.38;1.40;;;21.10;99.90;;;;;;5012591;28;20079;-76
2022/10/23 12:56:37;;;;;;;4.32;1.73;;;20.90;99.90;;;;;;5030214;28;20116;-76
2022/10/23 12:59:10;;;;;;;4.78;1.67;;;20.80;99.90;;;;;;5012529;28;20022;-76
2022/10/23 13:01:36;;;;;;;6.63;1.80;;;20.80;99.90;;;;;;5029592;28;20026;-76
2022/10/23 13:04:20;;;;;;;4.90;1.73;;;20.90;99.90;;;;;;5012209;28;20026;-76
2022/10/23 13:06:47;;;;;;;5.97;1.83;;;21.00;99.90;;;;;;5018616;28;20059;-76
2022/10/23 13:09:26;;;;;;;4.10;1.83;;;21.00;99.90;;;;;;5024040;28;20082;-76
2022/10/23 13:11:54;;;;;;;2.55;1.52;;;21.20;99.90;;;;;;5049437;28;20017;-77
2022/10/23 13:14:36;;;;;;;7.88;1.40;;;21.30;99.90;;;;;;5031924;28;20021;-76
2022/10/23 13:17:07;;;;;;;5.10;1.70;;;21.30;99.90;;;;;;5031762;28;20032;-76
2022/10/23 13:19:33;;;;;;;5.07;1.63;;;21.40;99.90;;;;;;5032186;28;20116;-76